Shagang Hongfa — 9V9138 — position and weather

sailwx.info

Track history (hours):
 
Tides and Currents Weather Stations Pressure Air Temp Water Temp Dewpoint Dewpoint Depression Visibility Wind Speed Wind Dir Waves Ship Positions

Shagang Hongfa

Last reported at 2016-Sep-20 14:09 UTC. Time now 2016-Sep-25 17:29 UTC.
Position N 38°20' E 121°40'.

Length 292 m; draft 10.3 m.

Type: Cargo ship. MMSI: 566178000.

Date/timePositionNaut miles runAvg speedWind from/ knotsBaromVisibWave heightAir tempDewpointWater temp
2016-Sep-20 14:09N 38°20' E 121°40'4713.2
2016-Sep-20 10:33N 38°35' E 120°43'  
2016-Sep-16 02:30N 38°38' E 118°32'53 9.8
2016-Sep-15 21:08N 38°39' E 119°39'8810.2
2016-Sep-15 12:32N 38°27' E 121°30'1010.6
2016-Sep-15 11:33N 38°31' E 121°42'28 0.9
2016-Sep-14 06:08N 38°57' E 121°53'6 0.6
2016-Sep-13 20:28N 38°54' E 121°60'0 0.0
2016-Sep-13 09:19N 38°54' E 121°59'0 0.0
2016-Sep-13 07:31N 38°54' E 121°60'0 0.0
2016-Sep-13 06:07N 38°54' E 121°60'0 0.0
2016-Sep-12 19:25N 38°54' E 121°60'0 0.0
2016-Sep-12 17:22N 38°54' E 121°60'0 0.0
2016-Sep-12 07:25N 38°54' E 121°59'0 0.0
2016-Sep-12 06:31N 38°54' E 121°59'7 1.5
2016-Sep-12 01:33N 38°48' E 122°06'8810.6
2016-Sep-11 17:12N 37°44' E 123°23'710.9
2016-Sep-11 16:33N 37°38' E 123°27'1211.1
2016-Sep-11 15:28N 37°28' E 123°35'1011.0
2016-Sep-11 14:33N 37°19' E 123°42'  
Track history (hours):
 
Tides and Currents Weather Stations Pressure Air Temp Water Temp Dewpoint Dewpoint Depression Visibility Wind Speed Wind Dir Waves Ship Positions

Shagang Hongfa

Last reported at 2016-Sep-20 14:09 UTC. Time now 2016-Sep-25 17:29 UTC.
Position N 38°20' E 121°40'.

Length 292 m; draft 10.3 m.

Type: Cargo ship. MMSI: 566178000.

Date/timePositionNaut miles runAvg speedWind from/ knotsBaromVisibWave heightAir tempDewpointWater temp
2016-Sep-20 14:09N 38°20' E 121°40'4713.2
2016-Sep-20 10:33N 38°35' E 120°43'  
2016-Sep-16 02:30N 38°38' E 118°32'53 9.8
2016-Sep-15 21:08N 38°39' E 119°39'8810.2
2016-Sep-15 12:32N 38°27' E 121°30'1010.6
2016-Sep-15 11:33N 38°31' E 121°42'28 0.9
2016-Sep-14 06:08N 38°57' E 121°53'6 0.6
2016-Sep-13 20:28N 38°54' E 121°60'0 0.0
2016-Sep-13 09:19N 38°54' E 121°59'0 0.0
2016-Sep-13 07:31N 38°54' E 121°60'0 0.0
2016-Sep-13 06:07N 38°54' E 121°60'0 0.0
2016-Sep-12 19:25N 38°54' E 121°60'0 0.0
2016-Sep-12 17:22N 38°54' E 121°60'0 0.0
2016-Sep-12 07:25N 38°54' E 121°59'0 0.0
2016-Sep-12 06:31N 38°54' E 121°59'7 1.5
2016-Sep-12 01:33N 38°48' E 122°06'8810.6
2016-Sep-11 17:12N 37°44' E 123°23'710.9
2016-Sep-11 16:33N 37°38' E 123°27'1211.1
2016-Sep-11 15:28N 37°28' E 123°35'1011.0
2016-Sep-11 14:33N 37°19' E 123°42'  

Dump ship's entire track history